createdAt,value
2017-01-25T00:00:27.701Z,78.71
2017-01-25T00:00:57.723Z,78.49
2017-01-25T00:01:27.745Z,78.15
2017-01-25T00:01:57.781Z,78.43
2017-01-25T00:02:27.807Z,78.24
2017-01-25T00:02:57.836Z,78.24
2017-01-25T00:03:27.859Z,78.3
2017-01-25T00:03:57.889Z,78.58
2017-01-25T00:04:27.921Z,78.39
2017-01-25T00:04:57.939Z,78.52
2017-01-25T00:05:27.968Z,78.15
2017-01-25T00:05:57.997Z,78.3
2017-01-25T00:06:28.025Z,78.49
2017-01-25T00:06:58.050Z,77.92
2017-01-25T00:07:28.080Z,78.24
2017-01-25T00:07:58.106Z,78.49
2017-01-25T00:08:28.130Z,78.2
2017-01-25T00:08:58.160Z,78.43
2017-01-25T00:09:28.539Z,78.11
2017-01-25T00:09:58.212Z,78.24
2017-01-25T00:10:28.244Z,78.24
2017-01-25T00:10:58.270Z,78.02
2017-01-25T00:11:28.297Z,78.77
2017-01-25T00:11:58.321Z,78.81
2017-01-25T00:12:28.348Z,78.77
2017-01-25T00:12:58.376Z,78.67
2017-01-25T00:13:28.412Z,78.77
2017-01-25T00:13:58.459Z,78.24
2017-01-25T00:14:28.788Z,78.77
2017-01-25T00:14:58.486Z,78.9
2017-01-25T00:15:28.515Z,78.71
2017-01-25T00:15:58.546Z,78.58
2017-01-25T00:16:28.579Z,78.62
2017-01-25T00:16:58.601Z,78.67
2017-01-25T00:17:28.621Z,78.9
2017-01-25T00:17:58.651Z,79.14
2017-01-25T00:18:28.680Z,79.19
2017-01-25T00:18:58.701Z,78.96
2017-01-25T00:19:28.730Z,79
2017-01-25T00:19:58.771Z,79
2017-01-25T00:20:28.785Z,78.9
2017-01-25T00:20:58.833Z,79.09
2017-01-25T00:21:28.841Z,79
2017-01-25T00:21:58.864Z,79
2017-01-25T00:22:28.892Z,78.52
2017-01-25T00:22:58.921Z,78.62
2017-01-25T00:23:28.947Z,78.62
2017-01-25T00:23:58.980Z,79.09
2017-01-25T00:24:29.006Z,78.71
2017-01-25T00:24:59.028Z,79
2017-01-25T00:25:29.054Z,79
2017-01-25T00:25:59.086Z,79.09
2017-01-25T00:26:29.111Z,78.81
2017-01-25T00:26:59.144Z,79.09
2017-01-25T00:27:29.164Z,79.09
2017-01-25T00:27:59.195Z,79.09
2017-01-25T00:28:29.229Z,78.71
2017-01-25T00:28:59.247Z,79.09
2017-01-25T00:29:29.276Z,79
2017-01-25T00:29:59.298Z,79.19
2017-01-25T00:30:29.333Z,79.66
2017-01-25T00:30:59.356Z,79.47
2017-01-25T00:31:29.384Z,79
2017-01-25T00:31:59.417Z,79.09
2017-01-25T00:32:29.442Z,79
2017-01-25T00:32:59.470Z,78.71
2017-01-25T00:33:29.498Z,78.9
2017-01-25T00:33:59.522Z,78.62
2017-01-25T00:34:29.553Z,78.81
2017-01-25T00:34:59.876Z,79.66
2017-01-25T00:35:29.608Z,79.09
2017-01-25T00:35:59.633Z,78.9
2017-01-25T00:36:29.655Z,79.09
2017-01-25T00:36:59.689Z,79.09
2017-01-25T00:37:29.712Z,79
2017-01-25T00:37:59.739Z,78.62
2017-01-25T00:38:29.768Z,79
2017-01-25T00:38:59.801Z,79.28
2017-01-25T00:39:29.826Z,79
2017-01-25T00:39:59.846Z,79.09
2017-01-25T00:40:29.876Z,79.09
2017-01-25T00:40:59.902Z,79.56
2017-01-25T00:41:29.930Z,79.47
2017-01-25T00:41:59.956Z,79.09
2017-01-25T00:42:29.982Z,79.28
2017-01-25T00:43:00.007Z,79.09
2017-01-25T00:43:30.042Z,79.56
2017-01-25T00:44:00.075Z,79
2017-01-25T00:44:30.097Z,78.9
2017-01-25T00:45:00.121Z,79.28
2017-01-25T00:45:30.156Z,79.09
2017-01-25T00:46:00.180Z,79.66
2017-01-25T00:46:30.200Z,79.47
2017-01-25T00:47:00.229Z,79.56
2017-01-25T00:47:30.263Z,79.56
2017-01-25T00:48:00.286Z,79.56
2017-01-25T00:48:30.313Z,79.47
2017-01-25T00:49:00.342Z,79.47
2017-01-25T00:49:30.373Z,79.56
2017-01-25T00:50:00.396Z,79.56
2017-01-25T00:50:30.418Z,79.09
2017-01-25T00:51:00.447Z,79.37
2017-01-25T00:51:30.476Z,79.37
2017-01-25T00:52:00.505Z,79.75
2017-01-25T00:52:30.532Z,79.56
2017-01-25T00:53:00.559Z,79.47
2017-01-25T00:53:30.593Z,79.56
2017-01-25T00:54:00.642Z,79.56
2017-01-25T00:54:30.640Z,79.28
2017-01-25T00:55:00.667Z,79.37
2017-01-25T00:55:31.000Z,79.56
2017-01-25T00:56:00.722Z,79.37
2017-01-25T00:56:30.752Z,79.56
2017-01-25T00:57:00.778Z,79.19
2017-01-25T00:57:30.805Z,79.09
2017-01-25T00:58:00.837Z,79.56
2017-01-25T00:58:30.869Z,79.56
2017-01-25T00:59:00.891Z,79.28
2017-01-25T00:59:30.917Z,79.56
2017-01-25T01:00:00.947Z,79.37
2017-01-25T01:00:30.973Z,79.09
2017-01-25T01:01:01.033Z,79.37
2017-01-25T01:01:31.020Z,79.66
2017-01-25T01:02:01.052Z,79.66
2017-01-25T01:02:31.080Z,79.47
2017-01-25T01:03:01.106Z,79.94
2017-01-25T01:03:31.135Z,80.32
2017-01-25T01:04:01.165Z,80.22
2017-01-25T01:04:31.190Z,80.41
2017-01-25T01:05:01.221Z,79.56
2017-01-25T01:05:31.244Z,79.75
2017-01-25T01:06:01.310Z,79.75
2017-01-25T01:06:31.298Z,79.37
2017-01-25T01:07:01.326Z,79.37
2017-01-25T01:07:31.360Z,79.28
2017-01-25T01:08:01.381Z,79.09
2017-01-25T01:08:31.412Z,79.09
2017-01-25T01:09:01.434Z,79
2017-01-25T01:09:31.466Z,78.81
2017-01-25T01:10:01.491Z,79
2017-01-25T01:10:31.515Z,79.09
2017-01-25T01:11:01.544Z,79.09
2017-01-25T01:11:31.576Z,79
2017-01-25T01:12:02.049Z,79.09
2017-01-25T01:12:31.634Z,79.19
2017-01-25T01:13:01.755Z,78.52
2017-01-25T01:13:31.711Z,79.09
2017-01-25T01:14:01.708Z,79
2017-01-25T01:14:31.736Z,78.9
2017-01-25T01:15:01.767Z,79
2017-01-25T01:15:31.821Z,79.19
2017-01-25T01:16:02.472Z,79.47
2017-01-25T01:16:31.842Z,78.71
2017-01-25T01:17:01.879Z,78.81
2017-01-25T01:17:31.903Z,78.9
2017-01-25T01:18:01.930Z,79
2017-01-25T01:18:31.949Z,78.9
2017-01-25T01:19:01.978Z,79.09
2017-01-25T01:19:32.009Z,79.19
2017-01-25T01:20:02.289Z,79.09
2017-01-25T01:20:32.064Z,79.09
2017-01-25T01:21:02.642Z,79.09
2017-01-25T01:21:32.117Z,79.66
2017-01-25T01:22:02.497Z,79.66
2017-01-25T01:22:32.177Z,79.19
2017-01-25T01:23:02.502Z,79.66
2017-01-25T01:23:32.230Z,79.56
2017-01-25T01:24:02.409Z,79.47
2017-01-25T01:24:32.282Z,79.56
2017-01-25T01:25:02.510Z,79.75
2017-01-25T01:25:32.336Z,79.19
2017-01-25T01:26:02.615Z,79.28
2017-01-25T01:26:32.393Z,79.37
2017-01-25T01:27:02.523Z,79.19
2017-01-25T01:27:32.446Z,79.09
2017-01-25T01:28:02.477Z,79.19
2017-01-25T01:28:32.498Z,79.56
2017-01-25T01:29:02.529Z,79.09
2017-01-25T01:29:32.554Z,79
2017-01-25T01:30:02.584Z,79.28
2017-01-25T01:30:32.612Z,79.47
2017-01-25T01:31:02.896Z,79.66
2017-01-25T01:31:32.665Z,79.09
2017-01-25T01:32:02.693Z,79.19
2017-01-25T01:32:32.719Z,79.75
2017-01-25T01:33:02.747Z,79.37
2017-01-25T01:33:32.777Z,80.04
2017-01-25T01:34:02.853Z,80.13
2017-01-25T01:34:32.830Z,79.85
2017-01-25T01:35:02.863Z,79.85
2017-01-25T01:35:32.887Z,79.94
2017-01-25T01:36:03.063Z,80.04
2017-01-25T01:36:33.242Z,79.85
2017-01-25T01:37:02.970Z,79.56
2017-01-25T01:37:32.994Z,79.56
2017-01-25T01:38:03.028Z,80.13
2017-01-25T01:38:33.048Z,79.66
2017-01-25T01:39:03.078Z,79.37
2017-01-25T01:39:33.101Z,79.28
2017-01-25T01:40:03.130Z,79.56
2017-01-25T01:40:33.166Z,79.47
2017-01-25T01:41:03.195Z,79.19
2017-01-25T01:41:33.516Z,79.37
2017-01-25T01:42:03.342Z,79.37
2017-01-25T01:42:33.271Z,79.28
2017-01-25T01:43:03.294Z,79.47
2017-01-25T01:43:33.328Z,79.56
2017-01-25T01:44:03.355Z,79.47
2017-01-25T01:44:33.378Z,79.56
2017-01-25T01:45:03.408Z,79.19
2017-01-25T01:45:33.433Z,79.28
2017-01-25T01:46:03.462Z,79.37
2017-01-25T01:46:33.489Z,79.56
2017-01-25T01:47:03.520Z,79.28
2017-01-25T01:47:33.552Z,79.56
2017-01-25T01:48:03.577Z,79.75
2017-01-25T01:48:33.602Z,79.37
2017-01-25T01:49:03.662Z,79.28
2017-01-25T01:49:33.649Z,79.19
2017-01-25T01:50:03.686Z,79.37
2017-01-25T01:50:33.705Z,79.66
2017-01-25T01:51:03.733Z,79.28
2017-01-25T01:51:33.764Z,79.47
2017-01-25T01:52:03.789Z,79
2017-01-25T01:52:33.816Z,79.19
2017-01-25T01:53:03.845Z,79.09
2017-01-25T01:53:33.876Z,79
2017-01-25T01:54:03.901Z,78.71
2017-01-25T01:54:33.960Z,79
2017-01-25T01:55:03.988Z,79
2017-01-25T01:55:33.984Z,78.81
2017-01-25T01:56:04.009Z,79.37
2017-01-25T01:56:34.039Z,78.81
2017-01-25T01:57:04.366Z,79.37
2017-01-25T01:57:34.093Z,79.47
2017-01-25T01:58:04.117Z,78.81
2017-01-25T01:58:34.145Z,79
2017-01-25T01:59:04.176Z,79
2017-01-25T01:59:34.206Z,79.09
2017-01-25T02:00:04.225Z,79.19
2017-01-25T02:00:34.254Z,79.09
2017-01-25T02:01:04.283Z,79.09
2017-01-25T02:01:34.309Z,79
2017-01-25T02:02:04.648Z,79.09
2017-01-25T02:02:34.363Z,79.09
2017-01-25T02:03:04.392Z,79.19
2017-01-25T02:03:34.423Z,79
2017-01-25T02:04:04.483Z,78.71
2017-01-25T02:04:34.474Z,79.37
2017-01-25T02:05:04.499Z,79.66
2017-01-25T02:05:34.529Z,79.56
2017-01-25T02:06:04.557Z,79.47
2017-01-25T02:06:34.584Z,79.56
2017-01-25T02:07:04.612Z,79.47
2017-01-25T02:07:34.642Z,79.47
2017-01-25T02:08:04.668Z,79.66
2017-01-25T02:08:34.695Z,79.28
2017-01-25T02:09:04.720Z,79.19
2017-01-25T02:09:34.751Z,79.66
2017-01-25T02:10:04.782Z,79.85
2017-01-25T02:10:34.800Z,79.56
2017-01-25T02:11:04.828Z,79.09
2017-01-25T02:11:34.853Z,79.37
2017-01-25T02:12:04.885Z,79.28
2017-01-25T02:12:34.912Z,79.56
2017-01-25T02:13:04.951Z,79.47
2017-01-25T02:13:34.966Z,79.56
2017-01-25T02:14:04.993Z,79.28
2017-01-25T02:14:35.022Z,79.47
2017-01-25T02:15:05.047Z,79.09
2017-01-25T02:15:35.078Z,79.09
2017-01-25T02:16:05.102Z,79.19
2017-01-25T02:16:35.132Z,79.66
2017-01-25T02:17:05.161Z,79.47
2017-01-25T02:17:35.486Z,79.28
2017-01-25T02:18:05.215Z,79.66
2017-01-25T02:18:35.238Z,79.19
2017-01-25T02:19:05.276Z,79.47
2017-01-25T02:19:35.298Z,79
2017-01-25T02:20:05.328Z,79.47
2017-01-25T02:20:35.353Z,79.37
2017-01-25T02:21:05.381Z,79
2017-01-25T02:21:35.412Z,79.09
2017-01-25T02:22:05.434Z,79
2017-01-25T02:22:35.762Z,79.09
2017-01-25T02:23:05.521Z,79
2017-01-25T02:23:35.517Z,79.09
2017-01-25T02:24:05.546Z,78.9
2017-01-25T02:24:35.572Z,79
2017-01-25T02:25:05.596Z,78.9
2017-01-25T02:25:35.625Z,79.47
2017-01-25T02:26:05.650Z,79.09
2017-01-25T02:26:35.677Z,79.56
2017-01-25T02:27:05.711Z,79.47
2017-01-25T02:27:35.740Z,79.47
2017-01-25T02:28:05.764Z,79.09
2017-01-25T02:28:35.935Z,79.47
2017-01-25T02:29:05.819Z,79.19
2017-01-25T02:29:35.844Z,79.56
2017-01-25T02:30:05.873Z,79.28
2017-01-25T02:30:35.896Z,79.75
2017-01-25T02:31:05.929Z,79.56
2017-01-25T02:31:35.957Z,80.13
2017-01-25T02:32:05.980Z,79.56
2017-01-25T02:32:36.011Z,79.56
2017-01-25T02:33:06.038Z,79.28
2017-01-25T02:33:36.062Z,79.56
2017-01-25T02:34:06.093Z,79.66
2017-01-25T02:34:36.130Z,80.22
2017-01-25T02:35:06.145Z,80.22
2017-01-25T02:35:36.176Z,80.13
2017-01-25T02:36:06.199Z,80.69
2017-01-25T02:36:36.230Z,80.41
2017-01-25T02:37:06.255Z,80.13
2017-01-25T02:37:36.280Z,80.13
2017-01-25T02:38:06.317Z,80.22
2017-01-25T02:38:36.375Z,80.04
2017-01-25T02:39:06.367Z,80.22
2017-01-25T02:39:36.389Z,80.41
2017-01-25T02:40:06.416Z,80.32
2017-01-25T02:40:36.447Z,79.94
2017-01-25T02:41:06.474Z,79.85
2017-01-25T02:41:36.503Z,79.28
2017-01-25T02:42:06.531Z,79.47
2017-01-25T02:42:36.563Z,79.66
2017-01-25T02:43:06.935Z,79.19
2017-01-25T02:43:36.612Z,79.56
2017-01-25T02:44:06.644Z,79
2017-01-25T02:44:36.665Z,79
2017-01-25T02:45:06.693Z,78.9
2017-01-25T02:45:36.716Z,78.34
2017-01-25T02:46:06.747Z,78.52
2017-01-25T02:46:36.776Z,78.71
2017-01-25T02:47:06.803Z,78.81
2017-01-25T02:47:36.830Z,78.81
2017-01-25T02:48:06.907Z,78.05
2017-01-25T02:48:36.885Z,78.15
2017-01-25T02:49:06.916Z,78.24
2017-01-25T02:49:36.937Z,78.24
2017-01-25T02:50:06.966Z,78.81
2017-01-25T02:50:36.991Z,78.52
2017-01-25T02:51:07.018Z,78.71
2017-01-25T02:51:37.047Z,78.24
2017-01-25T02:52:07.076Z,78.62
2017-01-25T02:52:37.102Z,78.62
2017-01-25T02:53:07.132Z,78.52
2017-01-25T02:53:37.151Z,78.62
2017-01-25T02:54:07.181Z,79.28
2017-01-25T02:54:37.210Z,79
2017-01-25T02:55:07.283Z,79
2017-01-25T02:55:37.269Z,79.09
2017-01-25T02:56:07.293Z,78.9
2017-01-25T02:56:37.322Z,79.19
2017-01-25T02:57:07.345Z,78.62
2017-01-25T02:57:37.375Z,78.71
2017-01-25T02:58:07.403Z,79.09
2017-01-25T02:58:37.428Z,79.09
2017-01-25T02:59:07.460Z,79.47
2017-01-25T02:59:37.484Z,79.37
2017-01-25T03:00:07.509Z,79.75
2017-01-25T03:00:37.539Z,80.13
2017-01-25T03:01:07.566Z,80.51
2017-01-25T03:01:37.594Z,80.51
2017-01-25T03:02:07.623Z,80.69
2017-01-25T03:02:37.647Z,80.13
2017-01-25T03:03:07.673Z,80.32
2017-01-25T03:03:38.146Z,79.56
2017-01-25T03:04:07.730Z,79.85
2017-01-25T03:04:37.760Z,79.56
2017-01-25T03:05:07.787Z,79.28
2017-01-25T03:05:37.809Z,79.37
2017-01-25T03:06:07.840Z,79.56
2017-01-25T03:06:37.876Z,79.37
2017-01-25T03:07:07.910Z,79.37
2017-01-25T03:07:37.920Z,79.37
2017-01-25T03:08:07.951Z,79.37
2017-01-25T03:08:37.970Z,79.56
2017-01-25T03:09:08.002Z,79.09
2017-01-25T03:09:38.032Z,79.37
2017-01-25T03:10:08.059Z,79.56
2017-01-25T03:10:38.087Z,79.47
2017-01-25T03:11:08.118Z,79.47
2017-01-25T03:11:38.139Z,78.71
2017-01-25T03:12:08.165Z,79.37
2017-01-25T03:12:38.195Z,79
2017-01-25T03:13:08.222Z,79
2017-01-25T03:13:38.257Z,79
2017-01-25T03:14:08.277Z,79
2017-01-25T03:14:38.311Z,78.62
2017-01-25T03:15:08.329Z,78.71
2017-01-25T03:15:38.358Z,78.43
2017-01-25T03:16:08.386Z,78.71
2017-01-25T03:16:38.411Z,78.71
2017-01-25T03:17:08.444Z,78.81
2017-01-25T03:17:38.475Z,78.52
2017-01-25T03:18:08.496Z,78.05
2017-01-25T03:18:38.527Z,78.43
2017-01-25T03:19:08.554Z,78.24
2017-01-25T03:19:38.571Z,77.96
2017-01-25T03:20:08.605Z,78.05
2017-01-25T03:20:38.638Z,78.24
2017-01-25T03:21:08.664Z,78.43
2017-01-25T03:21:38.687Z,78.43
2017-01-25T03:22:08.716Z,78.34
2017-01-25T03:22:38.743Z,78.52
2017-01-25T03:23:08.775Z,78.71
2017-01-25T03:23:38.797Z,78.24
2017-01-25T03:24:09.123Z,78.43
2017-01-25T03:24:38.850Z,78.52
2017-01-25T03:25:08.883Z,78.34
2017-01-25T03:25:38.929Z,78.43
2017-01-25T03:26:08.934Z,78.52
2017-01-25T03:26:38.962Z,78.43
2017-01-25T03:27:08.988Z,78.52
2017-01-25T03:27:39.017Z,78.05
2017-01-25T03:28:09.050Z,78.34
2017-01-25T03:28:39.075Z,78.34
2017-01-25T03:29:09.450Z,78.52
2017-01-25T03:29:39.122Z,78.24
2017-01-25T03:30:09.152Z,78.62
2017-01-25T03:30:39.178Z,78.71
2017-01-25T03:31:09.210Z,79.09
2017-01-25T03:31:39.243Z,78.81
2017-01-25T03:32:09.263Z,79.09
2017-01-25T03:32:39.293Z,79
2017-01-25T03:33:09.315Z,79.09
2017-01-25T03:33:39.346Z,79.09
2017-01-25T03:34:09.371Z,79.09
2017-01-25T03:34:39.401Z,78.62
2017-01-25T03:35:09.427Z,79
2017-01-25T03:35:39.458Z,79.28
2017-01-25T03:36:09.480Z,79.66
2017-01-25T03:36:39.511Z,79.47
2017-01-25T03:37:09.536Z,79.56
2017-01-25T03:37:39.562Z,79.66
2017-01-25T03:38:09.596Z,79.28
2017-01-25T03:38:39.614Z,79.47
2017-01-25T03:39:09.643Z,79.47
2017-01-25T03:39:39.669Z,79.09
2017-01-25T03:40:09.701Z,78.9
2017-01-25T03:40:39.728Z,79
2017-01-25T03:41:09.753Z,79
2017-01-25T03:41:39.785Z,79.19
2017-01-25T03:42:09.808Z,79.47
2017-01-25T03:42:39.837Z,79.56
2017-01-25T03:43:09.861Z,79.09
2017-01-25T03:43:39.892Z,79.37
2017-01-25T03:44:09.917Z,79
2017-01-25T03:44:40.296Z,79.47
2017-01-25T03:45:09.982Z,79.19
2017-01-25T03:45:40.007Z,78.52
2017-01-25T03:46:10.030Z,78.62
2017-01-25T03:46:40.086Z,78.52
2017-01-25T03:47:10.084Z,78.71
2017-01-25T03:47:40.113Z,78.81
2017-01-25T03:48:10.161Z,78.62
2017-01-25T03:48:40.168Z,79
2017-01-25T03:49:10.192Z,79
2017-01-25T03:49:40.475Z,79
2017-01-25T03:50:10.246Z,79.47
2017-01-25T03:50:40.275Z,79.28
2017-01-25T03:51:10.303Z,78.81
2017-01-25T03:51:40.330Z,78.81
2017-01-25T03:52:10.356Z,79.09
2017-01-25T03:52:40.390Z,79
2017-01-25T03:53:10.437Z,78.81
2017-01-25T03:53:40.439Z,79.09
2017-01-25T03:54:10.468Z,78.62
2017-01-25T03:54:40.491Z,78.71
2017-01-25T03:55:10.524Z,78.62
2017-01-25T03:55:40.551Z,78.52
2017-01-25T03:56:10.576Z,78.43
2017-01-25T03:56:40.607Z,78.34
2017-01-25T03:57:10.634Z,78.24
2017-01-25T03:57:40.653Z,78.81
2017-01-25T03:58:10.687Z,78.71
2017-01-25T03:58:40.710Z,78.62
2017-01-25T03:59:10.743Z,78.62
2017-01-25T03:59:40.770Z,78.81
2017-01-25T04:00:10.794Z,78.9
2017-01-25T04:00:40.820Z,78.05
2017-01-25T04:01:10.861Z,78.24
2017-01-25T04:01:40.879Z,78.05
2017-01-25T04:02:10.905Z,78.43
2017-01-25T04:02:40.936Z,78.24
2017-01-25T04:03:10.961Z,78.24
2017-01-25T04:03:40.993Z,77.86
2017-01-25T04:04:11.016Z,78.05
2017-01-25T04:04:41.041Z,77.96
2017-01-25T04:05:11.322Z,77.39
2017-01-25T04:05:41.100Z,77.39
2017-01-25T04:06:11.144Z,77.3
2017-01-25T04:06:41.153Z,77.49
2017-01-25T04:07:11.183Z,77.39
2017-01-25T04:07:41.213Z,77.49
2017-01-25T04:08:11.236Z,77.58
2017-01-25T04:08:41.270Z,77.49
2017-01-25T04:09:11.286Z,77.77
2017-01-25T04:09:41.320Z,77.11
2017-01-25T04:10:11.645Z,77.39
2017-01-25T04:10:41.372Z,77.2
2017-01-25T04:11:11.402Z,77.3
2017-01-25T04:11:41.436Z,77.11
2017-01-25T04:12:11.460Z,77.01
2017-01-25T04:12:41.479Z,77.39
2017-01-25T04:13:11.511Z,77.11
2017-01-25T04:13:41.541Z,77.39
2017-01-25T04:14:11.567Z,77.2
2017-01-25T04:14:41.592Z,77.67
2017-01-25T04:15:11.621Z,77.67
2017-01-25T04:15:41.647Z,77.58
2017-01-25T04:16:11.675Z,77.39
2017-01-25T04:16:41.706Z,77.39
2017-01-25T04:17:11.736Z,77.49
2017-01-25T04:17:41.760Z,77.2
2017-01-25T04:18:11.783Z,77.3
2017-01-25T04:18:41.811Z,77.2
2017-01-25T04:19:11.843Z,77.49
2017-01-25T04:19:41.870Z,77.39
2017-01-25T04:20:11.889Z,77.96
2017-01-25T04:20:42.070Z,77.96
2017-01-25T04:21:11.958Z,78.05
2017-01-25T04:21:41.974Z,78.52
2017-01-25T04:22:12.005Z,78.71
2017-01-25T04:22:42.031Z,78.81
2017-01-25T04:23:12.060Z,78.24
2017-01-25T04:23:42.089Z,78.24
2017-01-25T04:24:12.115Z,78.34
2017-01-25T04:24:42.140Z,78.05
2017-01-25T04:25:12.168Z,78.34
2017-01-25T04:25:42.448Z,78.15
2017-01-25T04:26:12.222Z,78.05
2017-01-25T04:26:42.253Z,78.24
2017-01-25T04:27:12.281Z,77.77
2017-01-25T04:27:42.306Z,77.86
2017-01-25T04:28:12.329Z,77.86
2017-01-25T04:28:42.361Z,77.96
2017-01-25T04:29:12.386Z,77.96
2017-01-25T04:29:42.414Z,78.24
2017-01-25T04:30:12.442Z,77.96
2017-01-25T04:30:42.774Z,78.15
2017-01-25T04:31:12.494Z,78.71
2017-01-25T04:31:42.524Z,78.81
2017-01-25T04:32:12.556Z,78.43
2017-01-25T04:32:42.577Z,78.71
2017-01-25T04:33:12.614Z,79
2017-01-25T04:33:42.633Z,79.09
2017-01-25T04:34:12.661Z,78.9
2017-01-25T04:34:42.694Z,78.9
2017-01-25T04:35:42.744Z,78.81
2017-01-25T04:36:12.766Z,78.62
2017-01-25T04:36:42.794Z,78.62
2017-01-25T04:37:12.828Z,78.52
2017-01-25T04:37:42.855Z,78.52
2017-01-25T04:38:12.880Z,78.62
2017-01-25T04:38:42.906Z,78.52
2017-01-25T04:39:12.936Z,78.62
2017-01-25T04:39:42.964Z,78.34
2017-01-25T04:40:12.989Z,78.71
2017-01-25T04:40:43.011Z,78.81
2017-01-25T04:41:13.042Z,78.52
2017-01-25T04:41:43.070Z,77.96
2017-01-25T04:42:13.104Z,78.24
2017-01-25T04:42:43.125Z,77.96
2017-01-25T04:43:13.151Z,77.96
2017-01-25T04:43:43.178Z,77.86
2017-01-25T04:44:13.204Z,77.96
2017-01-25T04:44:43.235Z,78.05
2017-01-25T04:45:13.260Z,78.62
2017-01-25T04:45:43.295Z,78.62
2017-01-25T04:46:13.319Z,79
2017-01-25T04:46:43.345Z,79.09
2017-01-25T04:47:13.371Z,79
2017-01-25T04:47:43.399Z,79
2017-01-25T04:48:13.431Z,79
2017-01-25T04:48:43.457Z,79
2017-01-25T04:49:13.481Z,79.09
2017-01-25T04:49:43.511Z,78.81
2017-01-25T04:50:13.534Z,79.09
2017-01-25T04:50:43.563Z,79
2017-01-25T04:51:13.895Z,79.09
2017-01-25T04:51:43.620Z,79.19
2017-01-25T04:52:13.646Z,79
2017-01-25T04:52:43.673Z,79.19
2017-01-25T04:53:13.702Z,79.09
2017-01-25T04:53:43.730Z,78.81
2017-01-25T04:54:13.764Z,79.09
2017-01-25T04:54:43.785Z,79.09
2017-01-25T04:55:13.814Z,79.09
2017-01-25T04:55:43.844Z,79.56
2017-01-25T04:56:13.865Z,79.56
2017-01-25T04:56:43.897Z,79.56
2017-01-25T04:57:13.921Z,79.28
2017-01-25T04:57:43.951Z,79.28
2017-01-25T04:58:13.978Z,80.51
2017-01-25T04:58:44.003Z,80.41
2017-01-25T04:59:14.030Z,80.88
2017-01-25T04:59:44.061Z,80.69
2017-01-25T05:00:14.085Z,80.13
2017-01-25T05:00:44.114Z,79.85
2017-01-25T05:01:14.142Z,79.56
2017-01-25T05:01:44.213Z,79.94
2017-01-25T05:02:14.199Z,80.41
2017-01-25T05:02:44.233Z,81.16
2017-01-25T05:03:14.261Z,81.16
2017-01-25T05:03:44.279Z,80.41
2017-01-25T05:04:14.319Z,80.51
2017-01-25T05:04:44.337Z,80.32
2017-01-25T05:05:14.367Z,80.13
2017-01-25T05:05:44.420Z,79.37
2017-01-25T05:06:14.417Z,79.56
2017-01-25T05:06:44.449Z,79.66
2017-01-25T05:07:14.474Z,79.19
2017-01-25T05:07:44.501Z,78.9
2017-01-25T05:08:14.533Z,79.47
2017-01-25T05:08:44.563Z,79.09
2017-01-25T05:09:14.581Z,79
2017-01-25T05:09:44.609Z,79.09
2017-01-25T05:10:14.637Z,79.47
2017-01-25T05:10:44.668Z,79.09
2017-01-25T05:11:14.693Z,79.47
2017-01-25T05:11:44.973Z,79.09
2017-01-25T05:12:14.747Z,78.9
2017-01-25T05:12:44.781Z,79
2017-01-25T05:13:14.803Z,78.81
2017-01-25T05:13:44.827Z,78.52
2017-01-25T05:14:14.858Z,78.52
2017-01-25T05:14:44.896Z,78.62
2017-01-25T05:15:14.913Z,78.43
2017-01-25T05:15:44.942Z,78.52
2017-01-25T05:16:14.968Z,78.34
2017-01-25T05:16:44.996Z,78.34
2017-01-25T05:17:15.023Z,78.15
2017-01-25T05:17:45.050Z,78.05
2017-01-25T05:18:15.085Z,78.24
2017-01-25T05:18:45.115Z,78.34
2017-01-25T05:19:15.134Z,78.05
2017-01-25T05:19:45.163Z,77.96
2017-01-25T05:20:15.192Z,77.96
2017-01-25T05:20:45.220Z,77.96
2017-01-25T05:21:15.242Z,78.05
2017-01-25T05:21:45.273Z,78.43
2017-01-25T05:22:15.300Z,78.71
2017-01-25T05:22:45.328Z,79.09
2017-01-25T05:23:15.352Z,78.81
2017-01-25T05:23:45.382Z,79
2017-01-25T05:24:15.406Z,79
2017-01-25T05:24:45.437Z,79.09
2017-01-25T05:25:15.464Z,79
2017-01-25T05:25:45.491Z,78.9
2017-01-25T05:26:15.527Z,79.09
2017-01-25T05:26:45.546Z,79.19
2017-01-25T05:27:15.578Z,79
2017-01-25T05:27:45.601Z,79
2017-01-25T05:28:15.628Z,79.09
2017-01-25T05:28:45.657Z,78.9
2017-01-25T05:29:15.685Z,79
2017-01-25T05:29:45.714Z,78.71
2017-01-25T05:30:15.739Z,78.62
2017-01-25T05:30:45.768Z,78.52
2017-01-25T05:31:15.799Z,78.71
2017-01-25T05:31:45.823Z,78.43
2017-01-25T05:32:16.152Z,78.81
2017-01-25T05:32:45.875Z,78.62
2017-01-25T05:33:15.907Z,78.71
2017-01-25T05:33:45.932Z,78.52
2017-01-25T05:34:15.964Z,78.62
2017-01-25T05:34:45.985Z,78.34
2017-01-25T05:35:16.014Z,78.24
2017-01-25T05:35:46.042Z,78.05
2017-01-25T05:36:16.073Z,78.15
2017-01-25T05:36:46.098Z,78.52
2017-01-25T05:37:16.423Z,78.81
2017-01-25T05:37:46.155Z,78.62
2017-01-25T05:38:16.181Z,78.43
2017-01-25T05:38:46.210Z,78.9
2017-01-25T05:39:16.236Z,78.71
2017-01-25T05:39:46.265Z,78.62
2017-01-25T05:40:16.291Z,78.43
2017-01-25T05:40:46.321Z,78.34
2017-01-25T05:41:16.346Z,78.71
2017-01-25T05:41:46.378Z,78.56
2017-01-25T05:42:16.400Z,78.85
2017-01-25T05:42:46.430Z,78.43
2017-01-25T05:43:16.482Z,78.15
2017-01-25T05:43:46.485Z,78.24
2017-01-25T05:44:16.513Z,78.15
2017-01-25T05:44:46.546Z,77.77
2017-01-25T05:45:16.567Z,77.86
2017-01-25T05:45:46.598Z,77.39
2017-01-25T05:46:16.654Z,77.39
2017-01-25T05:46:46.653Z,77.3
2017-01-25T05:47:16.684Z,77.49
2017-01-25T05:47:46.854Z,77.67
2017-01-25T05:48:16.738Z,77.58
2017-01-25T05:48:46.763Z,77.67
2017-01-25T05:49:16.792Z,77.49
2017-01-25T05:49:46.819Z,77.49
2017-01-25T05:50:16.846Z,77.67
2017-01-25T05:50:46.869Z,77.49
2017-01-25T05:51:16.898Z,77.77
2017-01-25T05:51:46.936Z,78.05
2017-01-25T05:52:16.957Z,78.24
2017-01-25T05:52:47.281Z,78.34
2017-01-25T05:53:17.011Z,78.71
2017-01-25T05:53:47.036Z,78.71
2017-01-25T05:54:17.063Z,78.43
2017-01-25T05:54:47.094Z,78.52
2017-01-25T05:55:17.123Z,78.81
2017-01-25T05:55:47.143Z,78.71
2017-01-25T05:56:17.181Z,78.71
2017-01-25T05:56:47.204Z,78.52
2017-01-25T05:57:17.230Z,78.62
2017-01-25T05:57:47.511Z,78.52
2017-01-25T05:58:17.288Z,78.15
2017-01-25T05:58:47.311Z,78.24
2017-01-25T05:59:17.343Z,78.71
2017-01-25T05:59:47.371Z,79.19
2017-01-25T06:00:17.396Z,79.09
2017-01-25T06:00:47.425Z,78.9
2017-01-25T06:01:17.454Z,79
2017-01-25T06:01:47.480Z,79.09
2017-01-25T06:02:17.511Z,79.19
2017-01-25T06:02:47.535Z,79.03
2017-01-25T06:03:17.564Z,79.03
2017-01-25T06:03:47.585Z,79
2017-01-25T06:04:17.616Z,79
2017-01-25T06:04:47.653Z,78.94
2017-01-25T06:05:17.674Z,79.13
2017-01-25T06:05:47.697Z,78.94
2017-01-25T06:06:17.725Z,78.94
2017-01-25T06:06:47.756Z,79.13
2017-01-25T06:07:17.782Z,78.66
2017-01-25T06:07:47.805Z,78.75
2017-01-25T06:08:17.839Z,78.66
2017-01-25T06:08:47.861Z,78.56
2017-01-25T06:09:17.892Z,78.56
2017-01-25T06:09:47.920Z,78.75
2017-01-25T06:10:17.947Z,78.85
2017-01-25T06:10:47.973Z,78.85
2017-01-25T06:11:18.003Z,78.66
2017-01-25T06:11:48.034Z,78.94
2017-01-25T06:12:18.057Z,78.66
2017-01-25T06:12:48.092Z,78.56
2017-01-25T06:13:18.366Z,78.66
2017-01-25T06:13:48.146Z,78.56
2017-01-25T06:14:18.169Z,78.56
2017-01-25T06:14:48.197Z,78.75
2017-01-25T06:15:18.228Z,78.56
2017-01-25T06:15:48.291Z,78.85
2017-01-25T06:16:18.277Z,78.66
2017-01-25T06:16:48.311Z,78.66
2017-01-25T06:17:18.338Z,78.47
2017-01-25T06:17:48.371Z,79.03
2017-01-25T06:18:18.694Z,79.22
2017-01-25T06:18:48.417Z,78.94
2017-01-25T06:19:18.448Z,78.66
2017-01-25T06:19:48.474Z,79.13
2017-01-25T06:20:18.505Z,78.94
2017-01-25T06:20:48.530Z,79.03
2017-01-25T06:21:18.561Z,78.75
2017-01-25T06:21:48.588Z,78.85
2017-01-25T06:22:18.615Z,78.56
2017-01-25T06:22:48.645Z,78.94
2017-01-25T06:23:18.671Z,78.66
2017-01-25T06:23:48.699Z,78.38
2017-01-25T06:24:18.725Z,78.47
2017-01-25T06:24:48.756Z,78.94
2017-01-25T06:25:18.777Z,78.56
2017-01-25T06:25:48.808Z,78.09
2017-01-25T06:26:18.860Z,78.09
2017-01-25T06:26:48.899Z,78.28
2017-01-25T06:27:18.892Z,78.47
2017-01-25T06:27:48.917Z,78.47
2017-01-25T06:28:18.950Z,78.56
2017-01-25T06:28:48.978Z,78.28
2017-01-25T06:29:19.001Z,77.91
2017-01-25T06:29:49.030Z,78.28
2017-01-25T06:30:19.060Z,78.66
2017-01-25T06:30:49.091Z,78.56
2017-01-25T06:31:19.115Z,78.09